Terminal Aerodrome Forecast
Issued by NWS Dodge City, KS

Home | Current Version | Previous Version | Text Only | Print | Product List | Glossary On
Versions: 1 2 3 4 5 6 7 8 9 10 11 12 13 14 15 16
000
FTUS43 KDDC 191514 AAC
TAFDDC
TAF AMD
KDDC 191514Z 1915/2012 17010KT 1 1/2SM BR VV002
     FM191700 18011KT 6SM BR BKN070
     FM192100 16016G26KT P6SM BKN200
     FM200600 18012G23KT P6SM BKN060
     FM201000 20013KT P6SM BKN130=

USA.gov is the U.S. government's official web portal to all federal, state and local government web resources and services.